createdAt,value
2023-07-23T00:00:14.623Z,3.7
2023-07-23T00:01:14.221Z,3.1
2023-07-23T00:02:14.927Z,3.5
2023-07-23T00:03:14.891Z,3.2
2023-07-23T00:04:14.433Z,3.8
2023-07-23T00:05:14.294Z,3.2
2023-07-23T00:06:14.079Z,3.6
2023-07-23T00:07:14.869Z,3.6
2023-07-23T00:08:14.635Z,3.4
2023-07-23T00:09:14.441Z,3.6
2023-07-23T00:10:14.386Z,3.7
2023-07-23T00:11:14.167Z,2.8
2023-07-23T00:12:14.820Z,3.3
2023-07-23T00:13:14.140Z,4.1
2023-07-23T00:14:14.822Z,3.6
2023-07-23T00:15:14.601Z,3.1
2023-07-23T00:16:14.739Z,3.5
2023-07-23T00:17:14.224Z,4.2
2023-07-23T00:18:14.116Z,4.0
2023-07-23T00:19:14.747Z,3.3
2023-07-23T00:20:14.639Z,3.7
2023-07-23T00:21:14.442Z,4.1
2023-07-23T00:22:14.290Z,3.8
2023-07-23T00:23:14.157Z,2.9
2023-07-23T00:24:15.001Z,3.3
2023-07-23T00:25:14.634Z,3.9
2023-07-23T00:26:14.370Z,3.8
2023-07-23T00:27:14.271Z,3.2
2023-07-23T00:28:15.056Z,2.9
2023-07-23T00:29:14.908Z,2.9
2023-07-23T00:30:14.630Z,3.5
2023-07-23T00:31:14.503Z,3.9
2023-07-23T00:32:14.236Z,3.0
2023-07-23T00:33:14.953Z,2.6
2023-07-23T00:34:14.617Z,3.1
2023-07-23T00:35:14.534Z,4.0
2023-07-23T00:36:14.316Z,2.9
2023-07-23T00:37:14.106Z,3.6
2023-07-23T00:38:14.467Z,3.0
2023-07-23T00:39:14.232Z,3.5
2023-07-23T00:40:14.980Z,2.8
2023-07-23T00:41:14.726Z,2.5
2023-07-23T00:42:14.065Z,3.2
2023-07-23T00:43:14.877Z,3.2
2023-07-23T00:44:14.681Z,3.7
2023-07-23T00:45:14.458Z,3.0
2023-07-23T00:46:14.659Z,3.2
2023-07-23T00:47:14.205Z,2.5
2023-07-23T00:48:14.840Z,3.4
2023-07-23T00:49:14.633Z,3.9
2023-07-23T00:50:14.763Z,3.8
2023-07-23T00:51:14.324Z,3.6
2023-07-23T00:52:15.201Z,3.2
2023-07-23T00:53:14.790Z,2.9
2023-07-23T00:54:14.760Z,2.9
2023-07-23T00:55:14.345Z,3.1
2023-07-23T00:56:14.229Z,2.6
2023-07-23T00:57:15.145Z,2.4
2023-07-23T00:58:15.131Z,2.7
2023-07-23T00:59:14.418Z,3.1
2023-07-23T01:00:14.456Z,3.0
2023-07-23T01:01:14.316Z,2.5
2023-07-23T01:02:14.801Z,3.3
2023-07-23T01:03:14.754Z,2.9
2023-07-23T01:04:14.388Z,3.2
2023-07-23T01:05:14.243Z,3.1
2023-07-23T01:06:14.433Z,2.8
2023-07-23T01:07:15.007Z,2.9
2023-07-23T01:08:14.668Z,3.5
2023-07-23T01:09:14.524Z,2.4
2023-07-23T01:10:14.635Z,3.3
2023-07-23T01:11:14.877Z,2.2
2023-07-23T01:12:14.666Z,2.8
2023-07-23T01:13:15.485Z,3.1
2023-07-23T01:14:14.329Z,3.1
2023-07-23T01:15:14.111Z,2.8
2023-07-23T01:16:14.852Z,3.0
2023-07-23T01:17:15.251Z,2.8
2023-07-23T01:18:15.485Z,3.0
2023-07-23T01:19:15.228Z,3.5
2023-07-23T01:20:14.724Z,2.6
2023-07-23T01:21:14.239Z,2.7
2023-07-23T01:22:14.100Z,2.9
2023-07-23T01:23:14.786Z,2.8
2023-07-23T01:24:14.679Z,2.8
2023-07-23T01:25:14.411Z,3.2
2023-07-23T01:26:16.294Z,3.0
2023-07-23T01:27:14.047Z,3.4
2023-07-23T01:28:14.735Z,2.2
2023-07-23T01:29:14.604Z,3.1
2023-07-23T01:30:14.388Z,3.2
2023-07-23T01:31:14.213Z,2.3
2023-07-23T01:32:14.865Z,3.1
2023-07-23T01:33:15.783Z,2.6
2023-07-23T01:34:14.885Z,2.9
2023-07-23T01:35:16.022Z,2.4
2023-07-23T01:36:14.872Z,2.2
2023-07-23T01:37:15.825Z,1.8
2023-07-23T01:38:16.039Z,2.2
2023-07-23T01:39:14.522Z,3.2
2023-07-23T01:40:14.638Z,2.8
2023-07-23T01:41:14.136Z,2.7
2023-07-23T01:42:15.381Z,2.9
2023-07-23T01:43:14.741Z,2.5
2023-07-23T01:44:14.497Z,2.0
2023-07-23T01:45:14.313Z,2.8
2023-07-23T01:46:14.118Z,2.5
2023-07-23T01:47:14.728Z,2.8
2023-07-23T01:48:15.355Z,2.7
2023-07-23T01:49:14.393Z,2.6
2023-07-23T01:50:14.159Z,2.6
2023-07-23T01:51:14.942Z,2.2
2023-07-23T01:52:14.711Z,2.4
2023-07-23T01:53:14.581Z,2.8
2023-07-23T01:54:14.418Z,2.4
2023-07-23T01:55:14.267Z,2.8
2023-07-23T01:56:14.761Z,2.6
2023-07-23T01:57:14.564Z,2.8
2023-07-23T01:58:14.520Z,2.4
2023-07-23T01:59:14.511Z,2.6
2023-07-23T02:00:14.237Z,2.4
2023-07-23T02:01:14.852Z,3.3
2023-07-23T02:02:14.626Z,2.8
2023-07-23T02:03:14.418Z,2.8
2023-07-23T02:04:14.268Z,2.9
2023-07-23T02:05:14.934Z,3.0
2023-07-23T02:06:14.697Z,2.6
2023-07-23T02:07:14.447Z,2.4
2023-07-23T02:08:14.307Z,2.4
2023-07-23T02:09:14.232Z,2.1
2023-07-23T02:10:16.079Z,3.1
2023-07-23T02:11:14.704Z,2.9
2023-07-23T02:12:14.556Z,3.1
2023-07-23T02:13:14.273Z,2.4
2023-07-23T02:14:14.163Z,1.9
2023-07-23T02:15:14.889Z,3.1
2023-07-23T02:16:20.394Z,3.3
2023-07-23T02:17:14.805Z,2.7
2023-07-23T02:18:14.664Z,2.5
2023-07-23T02:19:14.484Z,1.8
2023-07-23T02:20:14.301Z,2.0
2023-07-23T02:21:14.127Z,1.8
2023-07-23T02:22:14.795Z,2.7
2023-07-23T02:23:15.370Z,2.2
2023-07-23T02:24:14.595Z,2.3
2023-07-23T02:25:14.369Z,2.7
2023-07-23T02:26:14.113Z,2.0
2023-07-23T02:27:15.313Z,2.5
2023-07-23T02:28:14.572Z,3.0
2023-07-23T02:29:14.398Z,2.2
2023-07-23T02:30:17.013Z,2.6
2023-07-23T02:31:14.230Z,2.3
2023-07-23T02:32:14.705Z,2.8
2023-07-23T02:33:14.549Z,1.8
2023-07-23T02:34:14.511Z,2.6
2023-07-23T02:35:14.242Z,2.3
2023-07-23T02:36:14.040Z,2.2
2023-07-23T02:37:14.706Z,3.2
2023-07-23T02:38:14.476Z,2.4
2023-07-23T02:39:14.385Z,2.2
2023-07-23T02:40:14.209Z,2.0
2023-07-23T02:41:14.852Z,2.4
2023-07-23T02:42:14.623Z,2.1
2023-07-23T02:43:14.448Z,2.4
2023-07-23T02:44:14.393Z,1.8
2023-07-23T02:45:14.111Z,2.2
2023-07-23T02:46:14.826Z,2.3
2023-07-23T02:47:14.571Z,2.8
2023-07-23T02:48:14.435Z,2.5
2023-07-23T02:49:14.279Z,3.0
2023-07-23T02:50:14.062Z,1.8
2023-07-23T02:51:14.788Z,1.9
2023-07-23T02:52:14.541Z,1.7
2023-07-23T02:53:14.421Z,2.2
2023-07-23T02:54:14.268Z,2.3
2023-07-23T02:55:14.943Z,2.1
2023-07-23T02:56:14.687Z,2.3
2023-07-23T02:57:15.031Z,2.1
2023-07-23T02:58:14.298Z,2.3
2023-07-23T02:59:14.170Z,2.3
2023-07-23T03:00:15.073Z,2.1
2023-07-23T03:01:14.721Z,2.0
2023-07-23T03:02:14.476Z,2.2
2023-07-23T03:03:14.418Z,2.4
2023-07-23T03:04:14.165Z,1.2
2023-07-23T03:05:15.038Z,1.7
2023-07-23T03:06:14.817Z,1.7
2023-07-23T03:07:14.397Z,2.2
2023-07-23T03:08:14.222Z,2.3
2023-07-23T03:09:16.617Z,2.2
2023-07-23T03:10:14.760Z,2.3
2023-07-23T03:11:14.587Z,2.3
2023-07-23T03:12:14.358Z,1.9
2023-07-23T03:13:14.189Z,1.9
2023-07-23T03:14:14.937Z,1.9
2023-07-23T03:15:14.619Z,2.0
2023-07-23T03:16:14.525Z,1.7
2023-07-23T03:17:14.275Z,1.7
2023-07-23T03:18:14.100Z,2.1
2023-07-23T03:19:14.864Z,2.0
2023-07-23T03:20:14.675Z,2.9
2023-07-23T03:21:14.441Z,2.1
2023-07-23T03:22:14.343Z,1.9
2023-07-23T03:23:14.169Z,1.9
2023-07-23T03:24:14.820Z,2.1
2023-07-23T03:25:14.568Z,1.9
2023-07-23T03:26:14.319Z,2.4
2023-07-23T03:27:14.178Z,1.5
2023-07-23T03:28:15.302Z,2.4
2023-07-23T03:29:14.773Z,1.3
2023-07-23T03:30:14.536Z,2.1
2023-07-23T03:31:14.363Z,2.4
2023-07-23T03:32:14.127Z,2.0
2023-07-23T03:33:14.813Z,2.0
2023-07-23T03:34:14.689Z,1.2
2023-07-23T03:35:14.453Z,1.6
2023-07-23T03:36:14.298Z,2.1
2023-07-23T03:37:14.068Z,1.8
2023-07-23T03:38:14.787Z,1.9
2023-07-23T03:39:14.687Z,2.1
2023-07-23T03:40:14.515Z,2.3
2023-07-23T03:41:14.359Z,2.2
2023-07-23T03:42:14.123Z,2.0
2023-07-23T03:43:14.700Z,1.1
2023-07-23T03:44:14.527Z,2.1
2023-07-23T03:45:14.324Z,2.2
2023-07-23T03:46:14.212Z,2.2
2023-07-23T03:47:16.647Z,1.6
2023-07-23T03:48:14.665Z,2.7
2023-07-23T03:49:14.521Z,2.2
2023-07-23T03:50:14.767Z,2.3
2023-07-23T03:51:15.100Z,2.3
2023-07-23T03:52:14.403Z,2.5
2023-07-23T03:53:14.186Z,2.4
2023-07-23T03:54:14.869Z,1.3
2023-07-23T03:55:14.599Z,2.3
2023-07-23T03:56:14.440Z,2.2
2023-07-23T03:57:14.501Z,1.9
2023-07-23T03:58:14.105Z,1.8
2023-07-23T03:59:14.841Z,1.8
2023-07-23T04:00:14.709Z,2.1
2023-07-23T04:01:14.412Z,2.0
2023-07-23T04:02:14.254Z,1.7
2023-07-23T04:03:13.975Z,2.1
2023-07-23T04:04:14.748Z,1.6
2023-07-23T04:05:14.640Z,1.8
2023-07-23T04:06:14.309Z,1.7
2023-07-23T04:07:14.100Z,1.5
2023-07-23T04:08:15.066Z,2.2
2023-07-23T04:09:14.753Z,1.8
2023-07-23T04:10:14.551Z,1.6
2023-07-23T04:11:14.423Z,1.9
2023-07-23T04:12:14.132Z,2.0
2023-07-23T04:13:14.800Z,1.2
2023-07-23T04:14:14.622Z,1.4
2023-07-23T04:15:14.474Z,2.1
2023-07-23T04:16:14.197Z,2.3
2023-07-23T04:17:18.105Z,1.8
2023-07-23T04:18:14.759Z,1.6
2023-07-23T04:19:14.707Z,1.5
2023-07-23T04:20:14.350Z,1.5
2023-07-23T04:21:14.515Z,2.1
2023-07-23T04:22:13.989Z,1.5
2023-07-23T04:23:14.764Z,2.1
2023-07-23T04:24:14.614Z,2.3
2023-07-23T04:25:14.320Z,1.8
2023-07-23T04:26:14.934Z,1.9
2023-07-23T04:27:14.780Z,1.6
2023-07-23T04:28:14.624Z,2.3
2023-07-23T04:29:14.554Z,1.5
2023-07-23T04:30:14.296Z,2.3
2023-07-23T04:31:14.170Z,1.4
2023-07-23T04:32:14.781Z,2.1
2023-07-23T04:33:14.514Z,1.9
2023-07-23T04:34:14.529Z,1.9
2023-07-23T04:35:14.227Z,1.8
2023-07-23T04:36:14.962Z,1.4
2023-07-23T04:37:14.759Z,1.6
2023-07-23T04:38:14.558Z,1.2
2023-07-23T04:39:14.386Z,1.8
2023-07-23T04:40:14.193Z,1.6
2023-07-23T04:41:14.809Z,1.5
2023-07-23T04:42:14.628Z,2.0
2023-07-23T04:43:14.475Z,1.9
2023-07-23T04:44:14.359Z,1.8
2023-07-23T04:45:14.164Z,2.0
2023-07-23T04:46:14.924Z,2.0
2023-07-23T04:47:14.601Z,1.1
2023-07-23T04:48:14.414Z,1.7
2023-07-23T04:49:14.286Z,2.0
2023-07-23T04:50:14.166Z,2.1
2023-07-23T04:51:14.767Z,1.8
2023-07-23T04:52:14.554Z,1.5
2023-07-23T04:53:14.352Z,1.3
2023-07-23T04:54:14.196Z,1.5
2023-07-23T04:55:14.894Z,1.0
2023-07-23T04:56:14.683Z,1.7
2023-07-23T04:57:14.544Z,2.0
2023-07-23T04:58:14.279Z,1.8
2023-07-23T04:59:14.269Z,1.6
2023-07-23T05:00:14.948Z,1.7
2023-07-23T05:01:14.648Z,1.4
2023-07-23T05:02:14.369Z,1.6
2023-07-23T05:03:14.438Z,1.5
2023-07-23T05:04:14.095Z,1.6
2023-07-23T05:05:14.816Z,1.4
2023-07-23T05:06:14.565Z,1.5
2023-07-23T05:07:14.495Z,1.1
2023-07-23T05:08:14.227Z,0.6
2023-07-23T05:09:14.119Z,1.1
2023-07-23T05:10:14.846Z,1.0
2023-07-23T05:11:14.530Z,1.1
2023-07-23T05:12:14.324Z,1.8
2023-07-23T05:13:14.852Z,1.5
2023-07-23T05:14:15.367Z,1.0
2023-07-23T05:15:14.975Z,0.6
2023-07-23T05:16:14.498Z,0.8
2023-07-23T05:17:14.305Z,1.0
2023-07-23T05:18:14.119Z,0.9
2023-07-23T05:19:14.819Z,0.8
2023-07-23T05:20:14.573Z,0.7
2023-07-23T05:21:14.389Z,1.3
2023-07-23T05:22:14.216Z,0.9
2023-07-23T05:23:14.004Z,1.0
2023-07-23T05:24:14.895Z,0.8
2023-07-23T05:25:14.549Z,1.0
2023-07-23T05:26:14.372Z,0.3
2023-07-23T05:27:14.170Z,0.4
2023-07-23T05:28:14.841Z,0.8
2023-07-23T05:29:14.738Z,0.7
2023-07-23T05:30:14.715Z,1.1
2023-07-23T05:31:14.330Z,1.1
2023-07-23T05:32:14.082Z,0.6
2023-07-23T05:33:14.875Z,1.0
2023-07-23T05:34:14.700Z,0.8
2023-07-23T05:35:14.520Z,1.1
2023-07-23T05:36:14.377Z,0.5
2023-07-23T05:37:14.113Z,1.1
2023-07-23T05:38:14.778Z,1.1
2023-07-23T05:39:14.634Z,0.8
2023-07-23T05:40:14.376Z,1.2
2023-07-23T05:41:14.232Z,0.4
2023-07-23T05:42:14.109Z,1.2
2023-07-23T05:43:14.892Z,0.3
2023-07-23T05:44:14.712Z,0.5
2023-07-23T05:45:14.388Z,0.7
2023-07-23T05:46:14.219Z,0.5
2023-07-23T05:47:14.321Z,1.0
2023-07-23T05:48:14.278Z,0.7
2023-07-23T05:49:14.037Z,0.7
2023-07-23T05:50:14.795Z,0.8
2023-07-23T05:51:14.530Z,1.1
2023-07-23T05:52:15.663Z,1.0
2023-07-23T05:53:15.253Z,0.6
2023-07-23T05:54:15.432Z,0.2
2023-07-23T05:55:14.864Z,1.0
2023-07-23T05:56:14.546Z,0.9
2023-07-23T05:57:14.361Z,1.0
2023-07-23T05:58:14.213Z,0.7
2023-07-23T05:59:14.938Z,0.6
2023-07-23T06:00:14.753Z,1.5
2023-07-23T06:01:14.500Z,0.7
2023-07-23T06:02:14.280Z,1.2
2023-07-23T06:03:14.221Z,0.5
2023-07-23T06:04:14.932Z,1.0
2023-07-23T06:05:14.781Z,1.1
2023-07-23T06:06:14.538Z,0.6
2023-07-23T06:07:14.303Z,0.6
2023-07-23T06:08:14.126Z,0.6
2023-07-23T06:09:14.764Z,0.5
2023-07-23T06:10:14.716Z,0.6
2023-07-23T06:11:14.491Z,0.5
2023-07-23T06:12:14.256Z,0.9
2023-07-23T06:13:14.063Z,0.8
2023-07-23T06:14:14.763Z,0.6
2023-07-23T06:15:14.639Z,0.4
2023-07-23T06:16:15.670Z,0.7
2023-07-23T06:17:14.218Z,0.3
2023-07-23T06:18:14.038Z,0.8
2023-07-23T06:19:14.729Z,0.1
2023-07-23T06:20:14.594Z,0.5
2023-07-23T06:21:14.363Z,1.2
2023-07-23T06:22:14.147Z,0.8
2023-07-23T06:23:14.924Z,0.3
2023-07-23T06:24:14.718Z,0.6
2023-07-23T06:25:14.633Z,0.2
2023-07-23T06:26:14.569Z,0.4
2023-07-23T06:27:14.144Z,0.7
2023-07-23T06:28:14.824Z,0.7
2023-07-23T06:29:14.640Z,0.7
2023-07-23T06:30:14.689Z,0.1
2023-07-23T06:31:14.354Z,0.7
2023-07-23T06:32:14.125Z,1.0
2023-07-23T06:33:14.839Z,0.4
2023-07-23T06:34:14.685Z,0.1
2023-07-23T06:35:14.568Z,0.5
2023-07-23T06:36:14.262Z,0.8
2023-07-23T06:37:14.143Z,0.8
2023-07-23T06:38:15.048Z,0.6
2023-07-23T06:39:14.594Z,0.6
2023-07-23T06:40:14.512Z,0.4
2023-07-23T06:41:14.194Z,0.4
2023-07-23T06:42:14.056Z,0.7
2023-07-23T06:43:14.981Z,0.3
2023-07-23T06:44:14.641Z,0.4
2023-07-23T06:45:14.456Z,0.8
2023-07-23T06:46:14.218Z,0.6
2023-07-23T06:47:13.995Z,0.4
2023-07-23T06:48:15.360Z,0.3
2023-07-23T06:49:14.711Z,0.5
2023-07-23T06:50:14.433Z,0.3
2023-07-23T06:51:14.112Z,0.7
2023-07-23T06:52:14.808Z,0.6
2023-07-23T06:53:14.649Z,0.2
2023-07-23T06:54:14.517Z,0.4
2023-07-23T06:55:14.401Z,0.5
2023-07-23T06:56:14.148Z,0.4
2023-07-23T06:57:14.870Z,0.6
2023-07-23T06:58:14.591Z,0.3
2023-07-23T06:59:14.403Z,0.9
2023-07-23T07:00:14.340Z,0.6
2023-07-23T07:01:14.117Z,0.5
2023-07-23T07:02:14.999Z,0.4
2023-07-23T07:03:14.697Z,0.4
2023-07-23T07:04:14.463Z,0.8
2023-07-23T07:05:14.333Z,0.6
2023-07-23T07:06:25.709Z,0.4
2023-07-23T07:07:14.758Z,0.0
2023-07-23T07:08:14.589Z,0.7
2023-07-23T07:09:14.508Z,0.7
2023-07-23T07:10:14.187Z,0.8
2023-07-23T07:11:24.259Z,0.4
2023-07-23T07:12:14.726Z,0.5
2023-07-23T07:13:14.553Z,0.6
2023-07-23T07:14:14.315Z,0.5
2023-07-23T07:15:14.234Z,0.8
2023-07-23T07:16:57.022Z,0.6
2023-07-23T07:17:14.648Z,0.9
2023-07-23T07:18:14.604Z,0.4
2023-07-23T07:19:14.309Z,0.3
2023-07-23T07:20:14.333Z,0.6
2023-07-23T07:21:14.860Z,0.5
2023-07-23T07:22:14.782Z,0.2
2023-07-23T07:23:14.829Z,0.3
2023-07-23T07:24:14.353Z,0.2
2023-07-23T07:25:14.418Z,0.4
2023-07-23T07:26:14.839Z,0.3
2023-07-23T07:27:14.590Z,0.3
2023-07-23T07:28:14.419Z,0.4
2023-07-23T07:29:14.247Z,0.3
2023-07-23T07:30:14.207Z,0.4
2023-07-23T07:31:14.812Z,0.9
2023-07-23T07:32:14.608Z,0.1
2023-07-23T07:33:14.520Z,0.3
2023-07-23T07:34:14.439Z,0.0
2023-07-23T07:35:14.559Z,0.5
2023-07-23T07:36:14.781Z,0.3
2023-07-23T07:37:14.560Z,0.0
2023-07-23T07:38:14.353Z,0.3
2023-07-23T07:39:14.222Z,0.3
2023-07-23T07:40:14.062Z,0.7
2023-07-23T07:41:14.718Z,0.6
2023-07-23T07:42:14.561Z,0.2
2023-07-23T07:43:14.526Z,0.5
2023-07-23T07:44:14.177Z,0.2
2023-07-23T07:45:14.086Z,0.7
2023-07-23T07:46:14.688Z,0.6
2023-07-23T07:47:14.509Z,0.2
2023-07-23T07:48:14.420Z,0.4
2023-07-23T07:49:14.513Z,0.1
2023-07-23T07:50:15.010Z,0.1
2023-07-23T07:51:14.824Z,0.4
2023-07-23T07:52:14.472Z,0.9
2023-07-23T07:53:14.651Z,0.6
2023-07-23T07:54:14.129Z,0.6
2023-07-23T07:55:14.935Z,0.4
2023-07-23T07:56:14.766Z,0.4
2023-07-23T07:57:14.556Z,0.3
2023-07-23T07:58:14.474Z,0.3
2023-07-23T07:59:14.425Z,0.6
2023-07-23T08:00:15.341Z,0.2
2023-07-23T08:01:14.805Z,0.2
2023-07-23T08:02:14.760Z,0.1
2023-07-23T08:03:14.557Z,0.0
2023-07-23T08:04:14.378Z,0.4
2023-07-23T08:05:15.214Z,0.0
2023-07-23T08:06:14.740Z,0.2
2023-07-23T08:07:14.599Z,0.6
2023-07-23T08:08:15.212Z,0.3
2023-07-23T08:09:16.913Z,0.2
2023-07-23T08:10:15.361Z,0.6
2023-07-23T08:11:14.669Z,0.0
2023-07-23T08:12:16.677Z,0.4
2023-07-23T08:13:14.702Z,0.2
2023-07-23T08:14:16.090Z,0.0
2023-07-23T08:15:14.927Z,0.3
2023-07-23T08:16:15.309Z,0.9
2023-07-23T08:17:14.615Z,0.4
2023-07-23T08:18:14.891Z,0.4
2023-07-23T08:19:15.134Z,0.3
2023-07-23T08:20:15.344Z,0.3
2023-07-23T08:21:16.624Z,0.3
2023-07-23T08:22:14.585Z,0.8
2023-07-23T08:23:14.169Z,0.5
2023-07-23T08:24:15.050Z,0.4
2023-07-23T08:25:15.195Z,0.3
2023-07-23T08:26:14.764Z,0.5
2023-07-23T08:27:17.903Z,0.1
2023-07-23T08:28:18.984Z,0.3
2023-07-23T08:29:16.873Z,0.2
2023-07-23T08:30:14.978Z,0.4
2023-07-23T08:31:14.619Z,1.0
2023-07-23T08:32:14.722Z,0.4
2023-07-23T08:33:15.521Z,1.2
2023-07-23T08:34:14.909Z,0.6
2023-07-23T08:35:14.713Z,0.9
2023-07-23T08:36:14.490Z,1.4
2023-07-23T08:37:14.354Z,0.9
2023-07-23T08:38:15.310Z,0.0
2023-07-23T08:39:14.937Z,0.8
2023-07-23T08:40:16.927Z,1.0
2023-07-23T08:41:28.145Z,0.8
2023-07-23T08:42:19.049Z,1.1
2023-07-23T08:43:32.810Z,0.9
2023-07-23T08:44:28.426Z,0.7
2023-07-23T08:45:34.039Z,0.6
2023-07-23T08:46:26.704Z,0.9
2023-07-23T08:47:14.509Z,0.9
2023-07-23T08:48:15.813Z,0.9
2023-07-23T08:49:17.859Z,0.9
2023-07-23T08:50:14.616Z,1.2
2023-07-23T08:51:14.987Z,1.0
2023-07-23T08:52:14.794Z,1.1
2023-07-23T08:53:15.636Z,0.6
2023-07-23T08:54:15.464Z,1.1
2023-07-23T08:55:14.929Z,0.5
2023-07-23T08:56:15.232Z,1.1
2023-07-23T08:57:15.007Z,1.3
2023-07-23T08:58:19.327Z,1.5
2023-07-23T08:59:14.669Z,1.4
2023-07-23T09:00:14.857Z,1.1
2023-07-23T09:01:15.169Z,1.2
2023-07-23T09:02:14.903Z,0.9
2023-07-23T09:03:15.455Z,1.2
2023-07-23T09:04:14.474Z,1.2
2023-07-23T09:05:14.357Z,1.6
2023-07-23T09:06:14.135Z,0.7
2023-07-23T09:07:16.692Z,1.0
2023-07-23T09:08:14.627Z,1.1
2023-07-23T09:09:15.831Z,1.0
2023-07-23T09:10:14.261Z,1.4
2023-07-23T09:11:14.216Z,1.6
2023-07-23T09:12:14.756Z,0.9
2023-07-23T09:13:14.618Z,1.1
2023-07-23T09:14:15.112Z,1.0
2023-07-23T09:15:14.185Z,1.1
2023-07-23T09:16:19.727Z,1.0
2023-07-23T09:17:18.966Z,0.8
2023-07-23T09:18:14.544Z,1.0
2023-07-23T09:19:19.207Z,1.4
2023-07-23T09:20:16.581Z,0.9
2023-07-23T09:21:19.788Z,1.0
2023-07-23T09:22:16.169Z,0.8
2023-07-23T09:23:14.659Z,1.2
2023-07-23T09:24:15.002Z,1.3
2023-07-23T09:25:16.038Z,1.5
2023-07-23T09:26:19.120Z,0.9
2023-07-23T09:27:14.741Z,1.4
2023-07-23T09:28:20.707Z,0.8
2023-07-23T09:29:14.281Z,1.0
2023-07-23T09:30:17.635Z,1.0
2023-07-23T09:31:19.637Z,1.3
2023-07-23T09:32:24.415Z,1.0
2023-07-23T09:33:14.351Z,1.5
2023-07-23T09:34:18.444Z,0.9
2023-07-23T09:35:14.931Z,1.3
2023-07-23T09:36:14.749Z,1.0
2023-07-23T09:37:15.932Z,1.1
2023-07-23T09:38:14.454Z,1.2
2023-07-23T09:39:14.244Z,1.2
2023-07-23T09:40:14.906Z,1.6
2023-07-23T09:41:14.948Z,1.0
2023-07-23T09:42:14.587Z,1.4
2023-07-23T09:43:14.719Z,1.1
2023-07-23T09:44:14.202Z,0.7
2023-07-23T09:45:14.965Z,1.6
2023-07-23T09:46:14.752Z,1.3
2023-07-23T09:47:14.724Z,0.8
2023-07-23T09:48:17.356Z,1.2
2023-07-23T09:49:14.240Z,1.0
2023-07-23T09:50:15.459Z,1.4
2023-07-23T09:51:15.282Z,1.8
2023-07-23T09:52:14.501Z,1.7
2023-07-23T09:53:14.425Z,1.1
2023-07-23T09:54:14.400Z,1.2
2023-07-23T09:55:14.941Z,2.0
2023-07-23T09:56:15.122Z,1.6
2023-07-23T09:57:15.350Z,0.9
2023-07-23T09:58:15.425Z,1.2
2023-07-23T09:59:15.324Z,1.9
2023-07-23T10:00:14.935Z,1.8
2023-07-23T10:01:18.015Z,1.2
2023-07-23T10:02:15.395Z,1.2
2023-07-23T10:03:14.397Z,1.5
2023-07-23T10:04:15.777Z,0.6
2023-07-23T10:05:15.159Z,1.2
2023-07-23T10:06:15.224Z,1.4
2023-07-23T10:07:14.524Z,1.2
2023-07-23T10:08:15.212Z,1.3
2023-07-23T10:09:15.589Z,1.1
2023-07-23T10:10:14.954Z,0.8
2023-07-23T10:11:14.472Z,1.5
2023-07-23T10:12:14.828Z,0.9
2023-07-23T10:13:14.732Z,1.0
2023-07-23T10:14:14.548Z,1.6
2023-07-23T10:15:14.204Z,1.5
2023-07-23T10:16:24.558Z,1.6
2023-07-23T10:17:15.510Z,0.9
2023-07-23T10:18:15.184Z,1.1
2023-07-23T10:19:14.676Z,1.2
2023-07-23T10:20:15.189Z,1.0
2023-07-23T10:21:14.136Z,0.9
2023-07-23T10:22:15.216Z,1.3
2023-07-23T10:23:15.026Z,1.4
2023-07-23T10:24:14.419Z,1.2
2023-07-23T10:25:30.034Z,1.2
2023-07-23T10:26:23.443Z,1.0
2023-07-23T10:27:14.334Z,1.5
2023-07-23T10:28:19.164Z,1.0
2023-07-23T10:29:16.273Z,1.2
2023-07-23T10:30:15.865Z,1.0
2023-07-23T10:31:25.045Z,1.2
2023-07-23T10:32:24.255Z,1.3
2023-07-23T10:33:19.464Z,1.4
2023-07-23T10:34:27.892Z,1.8
2023-07-23T10:35:19.020Z,1.2
2023-07-23T10:36:14.855Z,0.9
2023-07-23T10:37:15.648Z,1.3
2023-07-23T10:38:20.507Z,1.5
2023-07-23T10:39:18.419Z,1.3
2023-07-23T10:40:18.937Z,1.4
2023-07-23T10:41:14.838Z,1.4
2023-07-23T10:42:39.235Z,1.1
2023-07-23T10:43:14.744Z,1.6
2023-07-23T10:44:20.559Z,1.4
2023-07-23T10:45:26.379Z,1.1
2023-07-23T10:46:17.403Z,1.6
2023-07-23T10:47:25.514Z,1.2
2023-07-23T10:48:17.110Z,1.5
2023-07-23T10:49:19.284Z,1.2
2023-07-23T10:50:16.204Z,1.9
2023-07-23T10:51:16.164Z,1.6
2023-07-23T10:52:16.752Z,1.0
2023-07-23T10:53:15.787Z,1.3
2023-07-23T10:54:14.821Z,1.4
2023-07-23T10:55:19.299Z,1.3
2023-07-23T10:56:24.888Z,1.9
2023-07-23T10:57:18.928Z,1.3
2023-07-23T10:58:15.947Z,1.3
2023-07-23T10:59:15.928Z,1.0
2023-07-23T11:00:23.206Z,1.6
2023-07-23T11:01:14.184Z,0.7
2023-07-23T11:02:14.977Z,1.0
2023-07-23T11:03:15.779Z,1.4
2023-07-23T11:04:16.192Z,1.3
2023-07-23T11:05:14.415Z,1.1
2023-07-23T11:06:29.912Z,1.5
2023-07-23T11:07:19.716Z,1.8
2023-07-23T11:08:18.448Z,1.8
2023-07-23T11:09:19.543Z,1.2
2023-07-23T11:10:20.478Z,2.1
2023-07-23T11:11:14.120Z,1.3
2023-07-23T11:12:15.482Z,1.7
2023-07-23T11:13:15.019Z,1.4
2023-07-23T11:14:18.014Z,1.6
2023-07-23T11:15:15.044Z,1.2
2023-07-23T11:16:14.141Z,1.3
2023-07-23T11:17:14.808Z,1.0
2023-07-23T11:18:14.794Z,1.4
2023-07-23T11:19:16.288Z,1.6
2023-07-23T11:20:15.032Z,1.9
2023-07-23T11:21:14.047Z,1.7
2023-07-23T11:22:14.835Z,1.5
2023-07-23T11:23:15.217Z,1.7
2023-07-23T11:24:14.415Z,1.4
2023-07-23T11:25:14.828Z,1.0
2023-07-23T11:26:15.888Z,1.7
2023-07-23T11:27:14.730Z,1.4
2023-07-23T11:28:17.055Z,1.8
2023-07-23T11:29:14.675Z,1.8
2023-07-23T11:30:14.394Z,1.4
2023-07-23T11:31:14.904Z,0.8
2023-07-23T11:32:14.806Z,1.2
2023-07-23T11:33:14.585Z,1.5
2023-07-23T11:34:14.456Z,1.7
2023-07-23T11:35:17.581Z,2.2
2023-07-23T11:36:14.422Z,2.0
2023-07-23T11:37:14.985Z,1.7
2023-07-23T11:38:14.052Z,1.7
2023-07-23T11:39:14.672Z,2.2
2023-07-23T11:40:23.967Z,2.2
2023-07-23T11:41:14.856Z,2.1
2023-07-23T11:42:17.112Z,1.4
2023-07-23T11:43:14.890Z,1.6
2023-07-23T11:44:14.739Z,1.6
2023-07-23T11:45:14.551Z,2.1
2023-07-23T11:46:18.554Z,1.4
2023-07-23T11:47:14.168Z,1.8
2023-07-23T11:48:15.772Z,1.9
2023-07-23T11:49:14.734Z,1.6
2023-07-23T11:50:15.448Z,2.0
2023-07-23T11:51:14.380Z,0.9
2023-07-23T11:52:14.109Z,1.6
2023-07-23T11:53:19.716Z,1.3
2023-07-23T11:54:14.758Z,1.5
2023-07-23T11:55:26.564Z,1.4
2023-07-23T11:56:14.341Z,1.7
2023-07-23T11:57:14.076Z,1.1
2023-07-23T11:58:17.463Z,1.6
2023-07-23T11:59:17.936Z,1.6
2023-07-23T12:00:14.571Z,1.8
2023-07-23T12:01:14.365Z,1.4
2023-07-23T12:02:15.351Z,1.2
2023-07-23T12:03:14.823Z,2.1
2023-07-23T12:04:14.596Z,1.3
2023-07-23T12:05:14.420Z,1.6
2023-07-23T12:06:15.346Z,1.8
2023-07-23T12:07:16.599Z,1.6
2023-07-23T12:08:14.232Z,1.6
2023-07-23T12:09:14.120Z,1.9
2023-07-23T12:10:15.116Z,1.5
2023-07-23T12:11:15.312Z,1.5
2023-07-23T12:12:14.395Z,1.6
2023-07-23T12:13:14.701Z,2.1
2023-07-23T12:14:15.047Z,1.5
2023-07-23T12:15:14.719Z,1.5
2023-07-23T12:16:18.994Z,1.5
2023-07-23T12:17:14.859Z,1.6
2023-07-23T12:18:14.640Z,1.7
2023-07-23T12:19:15.353Z,1.8
2023-07-23T12:20:17.362Z,1.5
2023-07-23T12:21:20.673Z,1.6
2023-07-23T12:22:14.795Z,2.0
2023-07-23T12:23:14.620Z,1.6
2023-07-23T12:24:15.947Z,1.6
2023-07-23T12:25:14.257Z,2.0
2023-07-23T12:26:14.056Z,2.2
2023-07-23T12:27:15.338Z,1.2
2023-07-23T12:28:14.655Z,2.0
2023-07-23T12:29:14.961Z,1.7
2023-07-23T12:30:14.434Z,1.6
2023-07-23T12:31:14.114Z,1.9
2023-07-23T12:32:15.826Z,2.0
2023-07-23T12:33:14.518Z,2.0
2023-07-23T12:34:15.168Z,1.8
2023-07-23T12:35:17.141Z,1.8
2023-07-23T12:36:14.917Z,1.8
2023-07-23T12:37:15.849Z,1.2
2023-07-23T12:38:14.598Z,1.7
2023-07-23T12:39:14.342Z,2.0
2023-07-23T12:40:14.221Z,1.4
2023-07-23T12:41:14.843Z,1.3
2023-07-23T12:42:14.744Z,1.6
2023-07-23T12:43:14.558Z,1.9
2023-07-23T12:44:14.285Z,1.6
2023-07-23T12:45:14.133Z,2.0
2023-07-23T12:46:14.916Z,1.5
2023-07-23T12:47:14.953Z,2.0
2023-07-23T12:48:14.462Z,1.6
2023-07-23T12:49:14.287Z,1.9
2023-07-23T12:50:14.220Z,0.9
2023-07-23T12:51:14.865Z,1.2
2023-07-23T12:52:14.741Z,1.9
2023-07-23T12:53:14.539Z,2.6
2023-07-23T12:54:14.332Z,2.4
2023-07-23T12:55:14.240Z,2.7
2023-07-23T12:56:15.054Z,2.5
2023-07-23T12:57:14.749Z,2.6
2023-07-23T12:58:14.512Z,2.8
2023-07-23T12:59:14.252Z,3.4
2023-07-23T13:00:14.398Z,2.9
2023-07-23T13:01:15.076Z,2.7
2023-07-23T13:02:14.286Z,3.1
2023-07-23T13:03:14.916Z,3.8
2023-07-23T13:04:14.634Z,3.7
2023-07-23T13:05:14.869Z,3.6
2023-07-23T13:06:14.693Z,4.2
2023-07-23T13:07:14.619Z,5.4
2023-07-23T13:08:14.286Z,4.8
2023-07-23T13:09:14.164Z,7.0
2023-07-23T13:10:14.869Z,6.1
2023-07-23T13:11:14.789Z,5.7
2023-07-23T13:12:14.542Z,5.8
2023-07-23T13:13:14.369Z,6.7
2023-07-23T13:14:14.274Z,6.8
2023-07-23T13:15:14.853Z,6.6
2023-07-23T13:16:14.622Z,6.9
2023-07-23T13:17:14.827Z,5.4
2023-07-23T13:18:14.236Z,6.0
2023-07-23T13:19:14.558Z,6.4
2023-07-23T13:20:14.286Z,6.5
2023-07-23T13:21:14.394Z,6.5
2023-07-23T13:22:14.976Z,6.0
2023-07-23T13:23:14.698Z,5.7
2023-07-23T13:24:14.582Z,6.6
2023-07-23T13:25:14.319Z,6.6
2023-07-23T13:26:14.121Z,5.4
2023-07-23T13:27:14.794Z,6.1
2023-07-23T13:28:14.219Z,5.8
2023-07-23T13:29:14.823Z,6.4
2023-07-23T13:30:14.626Z,5.8
2023-07-23T13:31:14.460Z,6.5
2023-07-23T13:32:14.376Z,5.7
2023-07-23T13:33:14.264Z,6.2
2023-07-23T13:34:14.842Z,6.3
2023-07-23T13:35:14.199Z,6.1
2023-07-23T13:36:14.114Z,6.8
2023-07-23T13:37:14.654Z,6.0
2023-07-23T13:38:14.461Z,6.7
2023-07-23T13:39:14.240Z,6.1
2023-07-23T13:40:14.804Z,5.8
2023-07-23T13:41:14.822Z,6.2
2023-07-23T13:42:14.266Z,5.5
2023-07-23T13:43:14.037Z,5.9
2023-07-23T13:44:14.273Z,6.0
2023-07-23T13:45:14.840Z,6.1
2023-07-23T13:46:14.849Z,4.8